M I D A S
Marine Information and Data Acquisition System
Tripno 177 of the Zeeleeuw from 2001-11-12 07:05:00 to 2001-11-14 18:20:00
Back to CruiseResearch ActivitiesStationsMapUnderway DataData graphs

EquipmentUnitsComment
TimeDGPSUTC
LatitudeDGPSDM.mWGS84
LongitudeDGPSDM.mWGS84
TemperatureSBE03/SBE38deg celciusITS90
ConductivitySBE21S/mITS90
SalinitySBE21 Practical Salinity Units
ChlorophylAChelsea fluorimeterg/lCalibrated in Aceton
Missing or incorrect values are displayed as -999
Sea surface data collected by the RV Zeeleeuw from 2001-11-12 07:05:00 to 2001-11-14 18:20:00
                                                                                    Next 1000 lines
Time Latitude Longitude Temperature Conductivity Salinity ChlorophylA
2001-11-12 08:47:18 51°13.689 2°55.907 16.787619 0.058958 0.338787  
2001-11-12 08:47:23 51°13.689 2°55.907 16.787619 0.058958 0.338787  
2001-11-12 08:47:28 51°13.689 2°55.907 16.788297 0.058958 0.338775  
2001-11-12 08:47:33 51°13.689 2°55.907 16.788679 0.058958 0.33877  
2001-11-12 08:47:38 51°13.689 2°55.907 16.788806 0.058958 0.33877  
2001-11-12 08:47:43 51°13.689 2°55.907 16.789145 0.058958 0.338758  
2001-11-12 08:47:48 51°13.689 2°55.907 16.789654 0.058958 0.338758  
2001-11-12 08:47:53 51°13.69 2°55.907 16.789654 0.058958 0.338758  
2001-11-12 08:47:58 51°13.69 2°55.907 16.790035 0.058958 0.338752  
2001-11-12 08:48:03 51°13.69 2°55.907 16.789781 0.058958 0.33874  
2001-11-12 08:48:08 51°13.69 2°55.907 16.790247 0.058958 0.338735  
2001-11-12 08:48:13 51°13.69 2°55.907 16.791899 0.058958 0.338735  
2001-11-12 08:48:18 51°13.69 2°55.907 16.792493 0.058958 0.338729  
2001-11-12 08:48:23 51°13.69 2°55.907 16.792493 0.058958 0.338729  
2001-11-12 08:48:28 51°13.69 2°55.907 16.793933 0.058859 0.338138  
2001-11-12 08:48:33 51°13.689 2°55.907 16.794188 0.058958 0.338711  
2001-11-12 08:48:38 51°13.689 2°55.907 16.794654 0.058859 0.338121  
2001-11-12 08:48:43 51°13.689 2°55.906 16.794696 0.058859 0.338115  
2001-11-12 08:48:48 51°13.689 2°55.906 16.795289 0.058859 0.338109  
2001-11-12 08:48:53 51°13.689 2°55.906 16.795289 0.058859 0.338109  
2001-11-12 08:48:58 51°13.689 2°55.906 16.795756 0.058859 0.338103  
2001-11-12 08:49:03 51°13.689 2°55.906 16.796264 0.058859 0.338092  
2001-11-12 08:49:08 51°13.689 2°55.906 16.796645 0.058859 0.338092  
2001-11-12 08:49:13 51°13.689 2°55.906 16.796645 0.058859 0.338086  
2001-11-12 08:49:18 51°13.689 2°55.906 16.596098 0.058761 0.337194  
2001-11-12 08:49:23 51°13.689 2°55.906 16.596098 0.058761 0.337194  
2001-11-12 08:49:28 51°13.689 2°55.906 13.421573 0.040411 0.229175  
2001-11-12 08:49:33 51°13.689 2°55.906 13.323211 0.064484 0.370509  
2001-11-12 08:49:38 51°13.689 2°55.907 13.367485 0.033999 0.192214  
2001-11-12 08:49:43 51°13.689 2°55.907 12.974416 0.044653 0.253383  
2001-11-12 08:49:48 51°13.689 2°55.907 12.656591 0.252083 1.51229  
2001-11-12 08:49:53 51°13.689 2°55.906 12.656591 0.252083 1.51229  
2001-11-12 08:49:58 51°13.689 2°55.906 12.516975 0.911972 5.889005  
2001-11-12 08:50:03 51°13.689 2°55.906 12.332761 0.919628 6.024418  
2001-11-12 08:50:08 51°13.689 2°55.907 12.200626 1.059453 7.201569  
2001-11-12 08:50:13 51°13.689 2°55.906 12.190783 0.904924 6.301306  
2001-11-12 08:50:18 51°13.689 2°55.906 12.066319 0.913971 6.431955  
2001-11-12 08:50:23 51°13.689 2°55.906 12.066319 0.913971 6.431955  
2001-11-12 08:50:28 51°13.689 2°55.906 11.866535 0.924509 6.588171  
2001-11-12 08:50:33 51°13.689 2°55.906 11.776437 0.92312 6.702045  
2001-11-12 08:50:38 51°13.689 2°55.907 11.638155 0.934653 6.872804  
2001-11-12 08:50:43 51°13.689 2°55.906 11.60132 0.929882 6.887279  
2001-11-12 08:50:48 51°13.689 2°55.906 11.521309 0.917655 6.826993  
2001-11-12 08:50:53 51°13.689 2°55.906 11.521309 0.917655 6.826993  
2001-11-12 08:50:58 51°13.689 2°55.906 11.446706 0.905926 6.766586  
2001-11-12 08:51:03 51°13.689 2°55.906 11.404714 0.909306 6.819387  
2001-11-12 08:51:08 51°13.689 2°55.906 11.350888 0.915271 6.898994  
2001-11-12 08:51:13 51°13.69 2°55.906 11.286901 0.921335 6.972933  
2001-11-12 08:51:18 51°13.69 2°55.906 11.201304 0.923324 7.011184  
2001-11-12 08:51:23 51°13.69 2°55.906 11.201304 0.923324 7.011184  
2001-11-12 08:51:28 51°13.69 2°55.906 11.137033 0.925213 7.041935  
2001-11-12 08:51:33 51°13.689 2°55.906 11.113567 0.927201 7.072606  
2001-11-12 08:51:38 51°13.689 2°55.906 11.070531 0.929289 7.104228  
2001-11-12 08:51:43 51°13.689 2°55.906 11.001744 0.931476 7.130638  
2001-11-12 08:51:48 51°13.689 2°55.906 10.948327 0.934558 7.172528  
2001-11-12 08:51:53 51°13.69 2°55.906 10.948327 0.934558 7.172528  
2001-11-12 08:51:58 51°13.69 2°55.906 10.907773 0.938436 7.215403  
2001-11-12 08:52:03 51°13.69 2°55.906 10.894635 0.942512 7.259148  
2001-11-12 08:52:08 51°13.69 2°55.906 10.843353 0.945893 7.301905  
2001-11-12 08:52:13 51°13.69 2°55.907 10.791337 0.948776 7.33383  
2001-11-12 08:52:18 51°13.69 2°55.907 10.789622 0.953052 7.382473  
2001-11-12 08:52:23 51°13.69 2°55.907 10.789622 0.953052 7.382473  
2001-11-12 08:52:28 51°13.69 2°55.907 10.7607 0.956234 7.420896  
2001-11-12 08:52:33 51°13.69 2°55.907 10.715809 0.958521 7.447495  
2001-11-12 08:52:38 51°13.69 2°55.907 10.710009 0.9622 7.488867  
2001-11-12 08:52:43 51°13.69 2°55.907 10.683605 0.965382 7.523448  
2001-11-12 08:52:48 51°13.69 2°55.907 10.64521 0.968862 7.562896  
2001-11-12 08:52:53 51°13.69 2°55.906 10.64521 0.968862 7.562896  
2001-11-12 08:52:58 51°13.69 2°55.907 10.614691 0.970454 7.581817  
2001-11-12 08:53:03 51°13.69 2°55.907 10.583599 0.972641 7.606286  
2001-11-12 08:53:08 51°13.69 2°55.907 10.551238 0.974829 7.632116  
2001-11-12 08:53:13 51°13.69 2°55.907 10.551331 0.976917 7.653691  
2001-11-12 08:53:18 51°13.69 2°55.907 10.553889 0.979702 7.684491  
2001-11-12 08:53:23 51°13.69 2°55.907 10.553889 0.979702 7.684491  
2001-11-12 08:53:28 51°13.69 2°55.907 10.551238 0.977117 7.669272  
2001-11-12 08:53:33 51°13.69 2°55.907 10.5564 0.984575 7.737881  
2001-11-12 08:53:38 51°13.69 2°55.907 10.61339 0.996012 7.842923  
2001-11-12 08:53:43 51°13.69 2°55.906 10.656401 1.02018 8.055218  
2001-11-12 08:53:48 51°13.69 2°55.907 10.708942 1.06803 8.468349  
2001-11-12 08:53:53 51°13.69 2°55.907 10.708942 1.06803 8.468349  
2001-11-12 08:53:58 51°13.69 2°55.906 10.745075 1.164859 9.303291  
2001-11-12 08:54:03 51°13.69 2°55.907 10.767329 1.30227 10.497206  
2001-11-12 08:54:08 51°13.69 2°55.907 10.76974 1.548826 12.666013  
2001-11-12 08:54:13 51°13.69 2°55.906 10.756481 1.756903 14.515193  
2001-11-12 08:54:18 51°13.69 2°55.907 10.749897 2.060408 17.256579  
2001-11-12 08:54:23 51°13.69 2°55.907 10.749897 2.060408 17.256579  
2001-11-12 08:54:28 51°13.69 2°55.907 10.74744 2.314306 19.571262  
2001-11-12 08:54:33 51°13.69 2°55.906 10.756203 2.487267 21.163172  
2001-11-12 08:54:38 51°13.69 2°55.906 10.75305 2.617784 22.368754  
2001-11-12 08:54:43 51°13.69 2°55.905 10.758289 2.714422 23.269898  
2001-11-12 08:54:48 51°13.69 2°55.905 10.76617 2.819385 24.260308  
2001-11-12 08:54:53 51°13.69 2°55.906 10.76617 2.819385 24.260308  
2001-11-12 08:54:58 51°13.69 2°55.906 10.759077 2.90135 25.039948  
2001-11-12 08:55:03 51°13.69 2°55.906 10.748135 2.954498 25.546068  
2001-11-12 08:55:08 51°13.69 2°55.906 10.747672 3.001946 25.998393  
2001-11-12 08:55:13 51°13.69 2°55.906 10.743267 3.043792 26.398049  
2001-11-12 08:55:18 51°13.69 2°55.906 10.74642 3.069122 26.638366  
2001-11-12 08:55:23 51°13.69 2°55.906 10.74642 3.069122 26.638366  
2001-11-12 08:55:28 51°13.69 2°55.906 10.749016 3.088945 26.829016  
2001-11-12 08:55:33 51°13.69 2°55.906 10.753097 3.101661 26.952193  
2001-11-12 08:55:38 51°13.69 2°55.906 10.755693 3.118782 27.120711  
2001-11-12 08:55:43 51°13.69 2°55.906 10.753653 3.153026 27.453536  
2001-11-12 08:55:48 51°13.69 2°55.906 10.753097 3.17776 27.695295  
2001-11-12 08:55:53 51°13.69 2°55.907 10.753097 3.17776 27.695295  
2001-11-12 08:55:58 51°13.69 2°55.907 10.753885 3.183267 27.74837  
2001-11-12 08:56:03 51°13.69 2°55.907 10.74999 3.176758 27.686848  
2001-11-12 08:56:08 51°13.69 2°55.907 10.75305 3.172953 27.648986  
2001-11-12 08:56:11 51°13.69 2°55.907 10.748135 3.175457 27.672504  
2001-11-12 08:56:14 51°13.69 2°55.907 10.747533 3.189175 27.80532  
2001-11-12 08:56:18 51°13.69 2°55.907 10.747533 3.189175 27.80532  
2001-11-12 08:56:23 51°13.69 2°55.907 10.751891 3.205598 27.966132  
2001-11-12 08:56:28 51°13.69 2°55.906 10.749758 3.218517 28.090811  
2001-11-12 08:56:33 51°13.69 2°55.907 10.750176 3.226628 28.169748  
2001-11-12 08:56:39 51°13.69 2°55.907 10.750036 3.236142 28.262264  
2001-11-12 08:56:43 51°13.69 2°55.907 10.74846 3.247258 28.372161  
2001-11-12 08:56:48 51°13.69 2°55.907 10.74846 3.247258 28.372161  
2001-11-12 08:56:53 51°13.69 2°55.907 10.750176 3.25517 28.449282  
2001-11-12 08:56:58 51°13.69 2°55.907 10.74795 3.261179 28.506787  
2001-11-12 08:57:03 51°13.69 2°55.907 10.749155 3.259577 28.490049  
2001-11-12 08:57:08 51°13.69 2°55.907 10.750315 3.265886 28.552327  
2001-11-12 08:57:13 51°13.69 2°55.907 10.747857 3.267188 28.568025  
2001-11-12 08:57:19 51°13.69 2°55.907 10.747857 3.267188 28.568025  
2001-11-12 08:57:23 51°13.69 2°55.907 10.74999 3.266888 28.566358  
2001-11-12 08:57:28 51°13.69 2°55.907 10.749712 3.267589 28.571282  
2001-11-12 08:57:33 51°13.69 2°55.907 10.749434 3.270493 28.600012  
2001-11-12 08:57:38 51°13.69 2°55.907 10.748738 3.271294 28.608388  
2001-11-12 08:57:43 51°13.69 2°55.907 10.747162 3.274599 28.640382  
2001-11-12 08:57:49 51°13.69 2°55.907 10.747162 3.274599 28.640382  
2001-11-12 08:57:53 51°13.69 2°55.907 10.749248 3.275501 28.651596  
2001-11-12 08:57:58 51°13.69 2°55.907 10.747811 3.277303 28.668428  
2001-11-12 08:58:03 51°13.69 2°55.907 10.74693 3.278405 28.680341  
2001-11-12 08:58:08 51°13.69 2°55.907 10.748785 3.28181 28.714565  
2001-11-12 08:58:13 51°13.69 2°55.907 10.747672 3.284214 28.7366  
2001-11-12 08:58:19 51°13.69 2°55.907 10.747672 3.284214 28.7366  
2001-11-12 08:58:23 51°13.69 2°55.907 10.743127 3.287419 28.770144  
2001-11-12 08:58:28 51°13.69 2°55.907 10.744472 3.289722 28.791213  
2001-11-12 08:58:33 51°13.69 2°55.907 10.731441 3.291926 28.815065  
2001-11-12 08:58:38 51°13.69 2°55.907 10.724019 3.294229 28.839895  
2001-11-12 08:58:43 51°13.69 2°55.907 10.713675 3.29453 28.840928  
2001-11-12 08:58:48 51°13.69 2°55.907 10.713675 3.29453 28.840928  
2001-11-12 08:58:53 51°13.69 2°55.907 10.714417 3.298837 28.8833  
2001-11-12 08:58:59 51°13.69 2°55.907 10.703885 3.301541 28.910773  
2001-11-12 08:59:03 51°13.69 2°55.907 10.700869 3.300639 28.9058  
2001-11-12 08:59:08 51°13.69 2°55.907 10.692423 3.29453 28.851579  
2001-11-12 08:59:13 51°13.69 2°55.907 10.686344 3.282111 28.737441  
2001-11-12 08:59:19 51°13.69 2°55.907 10.686344 3.282111 28.737441  
2001-11-12 08:59:23 51°13.69 2°55.907 10.685694 3.277604 28.697504  
2001-11-12 08:59:28 51°13.69 2°55.907 10.687179 3.273598 28.66491  
2001-11-12 08:59:33 51°13.69 2°55.907 10.682213 3.267289 28.60563  
2001-11-12 08:59:39 51°13.69 2°55.907 10.680542 3.262281 28.56332  
2001-11-12 08:59:43 51°13.69 2°55.907 10.681749 3.25437 28.492862  
2001-11-12 08:59:48 51°13.69 2°55.907 10.681749 3.25437 28.492862  
2001-11-12 08:59:53 51°13.69 2°55.907 10.679613 3.247459 28.431485  
2001-11-12 08:59:58 51°13.69 2°55.907 10.673904 3.245456 28.410846  
2001-11-12 09:00:03 51°13.69 2°55.907 10.674786 3.243053 28.394977  
2001-11-12 09:00:09 51°13.69 2°55.907 10.669169 3.24085 28.373016  
2001-11-12 09:00:13 51°13.69 2°55.907 10.667822 3.238246 28.350878  
2001-11-12 09:00:19 51°13.69 2°55.907 10.667822 3.238246 28.350878  
2001-11-12 09:00:23 51°13.69 2°55.907 10.667126 3.235943 28.327951  
2001-11-12 09:00:28 51°13.69 2°55.906 10.666012 3.232938 28.303165  
2001-11-12 09:00:32 51°13.69 2°55.906 10.660951 3.22753 28.250793  
2001-11-12 09:00:38 51°13.69 2°55.906 10.662019 3.222323 28.202828  
2001-11-12 09:00:43 51°13.69 2°55.907 10.659001 3.220821 28.190125  
2001-11-12 09:00:49 51°13.69 2°55.907 10.659001 3.220821 28.190125  
2001-11-12 09:00:53 51°13.689 2°55.907 10.658723 3.219319 28.179875  
2001-11-12 09:00:58 51°13.689 2°55.907 10.658583 3.215814 28.146552  
2001-11-12 09:01:03 51°13.689 2°55.907 10.655612 3.21341 28.124509  
2001-11-12 09:01:08 51°13.689 2°55.907 10.654961 3.212109 28.114354  
2001-11-12 09:01:17 51°13.689 2°55.906 10.656122 3.210006 28.097666  
2001-11-12 09:01:22 51°13.689 2°55.906 10.65654 3.209405 28.091238  
2001-11-12 09:01:27 51°13.689 2°55.906 10.656029 3.207803 28.078784  
2001-11-12 09:01:32 51°13.689 2°55.906 10.655565 3.206 28.060111  
2001-11-12 09:01:37 51°13.689 2°55.907 10.655054 3.205099 28.050776  
2001-11-12 09:01:42 51°13.689 2°55.906 10.655054 3.205099 28.050776  
2001-11-12 09:01:47 51°13.689 2°55.906 10.654172 3.204198 28.044495  
2001-11-12 09:01:52 51°13.689 2°55.906 10.654497 3.201994 28.025001  
2001-11-12 09:01:58 51°13.689 2°55.906 10.654126 3.204698 28.053007  
2001-11-12 09:02:03 51°13.689 2°55.906 10.654776 3.205199 28.056022  
2001-11-12 09:02:07 51°13.689 2°55.906 10.652454 3.204698 28.051785  
2001-11-12 09:02:12 51°13.689 2°55.906 10.652454 3.204698 28.051785  
2001-11-12 09:02:17 51°13.689 2°55.906 10.651107 3.204798 28.052144  
2001-11-12 09:02:22 51°13.689 2°55.906 10.652175 3.2056 28.062344  
2001-11-12 09:02:27 51°13.689 2°55.906 10.648646 3.2057 28.063314  
2001-11-12 09:02:32 51°13.689 2°55.906 10.646928 3.206 28.066222  
2001-11-12 09:02:36 51°13.689 2°55.906 10.647067 3.207202 28.078469  
2001-11-12 09:02:42 51°13.689 2°55.906 10.647067 3.207202 28.078469  
2001-11-12 09:02:47 51°13.689 2°55.906 10.640705 3.2061 28.068415  
2001-11-12 09:02:52 51°13.689 2°55.906 10.640612 3.2061 28.069637  
2001-11-12 09:02:57 51°13.689 2°55.906 10.64024 3.205499 28.062597  
2001-11-12 09:03:02 51°13.689 2°55.906 10.643073 3.204598 28.05876  
2001-11-12 09:03:07 51°13.689 2°55.906 10.644002 3.203897 28.055027  
2001-11-12 09:03:12 51°13.689 2°55.906 10.644002 3.203897 28.055027  
2001-11-12 09:03:17 51°13.689 2°55.906 10.645581 3.199792 28.015269  
2001-11-12 09:03:23 51°13.689 2°55.906 10.64521 3.202295 28.041344  
2001-11-12 09:03:27 51°13.689 2°55.906 10.644513 3.201294 28.032868  
2001-11-12 09:03:32 51°13.689 2°55.906 10.64507 3.200793 28.029851  
2001-11-12 09:03:37 51°13.689 2°55.906 10.64521 3.201494 28.036029  
2001-11-12 09:03:43 51°13.689 2°55.906 10.64521 3.201494 28.036029  
2001-11-12 09:03:47 51°13.689 2°55.906 10.644559 3.201594 28.03761  
2001-11-12 09:03:53 51°13.689 2°55.907 10.645581 3.202796 28.047415  
2001-11-12 09:03:56 51°13.688 2°55.907 10.643584 3.202796 28.046804  
2001-11-12 09:04:02 51°13.688 2°55.906 10.642051 3.201394 28.036281  
2001-11-12 09:04:07 51°13.688 2°55.906 10.641262 3.197488 27.997238  
2001-11-12 09:04:12 51°13.688 2°55.906 10.641262 3.197488 27.997238  
2001-11-12 09:04:17 51°13.688 2°55.906 10.640844 3.201594 28.033944  
2001-11-12 09:04:22 51°13.688 2°55.906 10.639497 3.202195 28.042818  
2001-11-12 09:04:27 51°13.688 2°55.906 10.637128 3.202896 28.049607  
2001-11-12 09:04:32 51°13.688 2°55.906 10.593082 3.201394 28.037503  
2001-11-12 09:04:38 51°13.688 2°55.906 10.583321 3.202796 28.04986  
2001-11-12 09:04:43 51°13.688 2°55.906 10.583321 3.202796 28.04986  
2001-11-12 09:04:47 51°13.688 2°55.906 10.574488 3.201494 28.039084  
2001-11-12 09:04:52 51°13.688 2°55.906 10.562213 3.200593 28.029744  
2001-11-12 09:04:57 51°13.688 2°55.906 10.563189 3.199992 28.026978  
2001-11-12 09:05:02 51°13.688 2°55.906 10.568816 3.188576 27.920081  
2001-11-12 09:05:07 51°13.687 2°55.906 10.567607 3.158636 27.642427  
2001-11-12 09:05:12 51°13.687 2°55.905 10.567607 3.158636 27.642427  
2001-11-12 09:05:17 51°13.687 2°55.905 10.563515 3.137108 27.445641  
2001-11-12 09:05:22 51°13.687 2°55.905 10.562817 3.119385 27.282694  
2001-11-12 09:05:27 51°13.687 2°55.905 10.563515 3.104967 27.152891  
2001-11-12 09:05:32 51°13.687 2°55.905 10.561794 3.100362 27.113137  
2001-11-12 09:05:36 51°13.687 2°55.905 10.560446 3.102364 27.13426  
2001-11-12 09:05:43 51°13.686 2°55.905 10.560446 3.102364 27.13426  
2001-11-12 09:05:48 51°13.686 2°55.905 10.560353 3.100962 27.119533  
2001-11-12 09:05:52 51°13.686 2°55.905 10.559795 3.096257 27.077624  
2001-11-12 09:05:57 51°13.686 2°55.905 10.559655 3.095556 27.072036  
2001-11-12 09:06:02 51°13.686 2°55.905 10.559516 3.093754 27.0564  
2001-11-12 09:06:07 51°13.686 2°55.905 10.558353 3.092752 27.045547  
2001-11-12 09:06:12 51°13.685 2°55.905 10.558353 3.092752 27.045547  
2001-11-12 09:06:17 51°13.685 2°55.904 10.556772 3.091851 27.039206  
2001-11-12 09:06:23 51°13.686 2°55.903 10.550261 3.091651 27.039043  
2001-11-12 09:06:27 51°13.686 2°55.902 10.542215 3.086144 26.985855  
2001-11-12 09:06:32 51°13.686 2°55.9 10.53547 3.092152 27.043288  
2001-11-12 09:06:36 51°13.686 2°55.899 10.529562 3.091351 27.036732  
2001-11-12 09:06:42 51°13.686 2°55.895 10.529562 3.091351 27.036732  
2001-11-12 09:06:47 51°13.687 2°55.891 10.528724 3.091351 27.036732  
2001-11-12 09:06:53 51°13.687 2°55.885 10.523467 3.087146 26.996704  
2001-11-12 09:06:59 51°13.687 2°55.879 10.522164 3.079436 26.925786  
2001-11-12 09:07:03 51°13.687 2°55.875 10.531097 3.066521 26.804622  
2001-11-12 09:07:08 51°13.687 2°55.868 10.546634 3.059913 26.746114  
2001-11-12 09:07:14 51°13.687 2°55.86 10.546634 3.059913 26.746114  
2001-11-12 09:07:19 51°13.687 2°55.854 10.553842 3.051904 26.674078  
2001-11-12 09:07:24 51°13.686 2°55.847 10.562538 3.046999 26.629076  
2001-11-12 09:07:29 51°13.686 2°55.841 10.56942 3.038589 26.550859  
2001-11-12 09:07:34 51°13.685 2°55.836 10.574209 3.039891 26.562831  
2001-11-12 09:07:39 51°13.685 2°55.83 10.576719 3.0479 26.638351  
2001-11-12 09:07:44 51°13.684 2°55.824 10.576719 3.0479 26.638351  
2001-11-12 09:07:48 51°13.684 2°55.82 10.575232 3.062016 26.76816  
2001-11-12 09:07:53 51°13.683 2°55.815 10.562538 3.072929 26.864715  
2001-11-12 09:07:58 51°13.683 2°55.81 10.54975 3.085243 26.977742  
2001-11-12 09:08:03 51°13.682 2°55.805 10.532446 3.09906 27.10589  
2001-11-12 09:08:08 51°13.682 2°55.8 10.484977 3.100662 27.113079  
2001-11-12 09:08:13 51°13.681 2°55.796 10.484977 3.100662 27.113079  
2001-11-12 09:08:18 51°13.68 2°55.791 10.454663 3.108371 27.188748  
2001-11-12 09:08:23 51°13.679 2°55.787 10.433141 3.10727 27.178699  
2001-11-12 09:08:28 51°13.678 2°55.783 10.408583 3.104467 27.152797  
2001-11-12 09:08:33 51°13.677 2°55.779 10.390356 3.090149 27.020995  
2001-11-12 09:08:37 51°13.677 2°55.776 10.378699 3.078335 26.91574  
2001-11-12 09:08:43 51°13.676 2°55.771 10.378699 3.078335 26.91574  
2001-11-12 09:08:48 51°13.675 2°55.768 10.376041 3.041392 26.577898  
2001-11-12 09:08:53 51°13.674 2°55.764 10.370818 2.999647 26.193334  
2001-11-12 09:08:58 51°13.673 2°55.761 10.372684 2.971418 25.941966  
2001-11-12 09:09:03 51°13.672 2°55.758 10.369792 2.940989 25.663192  
2001-11-12 09:09:08 51°13.672 2°55.757 10.367927 2.913164 25.412901  
2001-11-12 09:09:13 51°13.672 2°55.757 10.367927 2.913164 25.412901  
2001-11-12 09:09:19 51°13.674 2°55.758 16.11479 2.89715 25.268393  
2001-11-12 09:09:23 51°13.675 2°55.759 12.596289 2.889543 25.203583  
2001-11-12 09:09:28 51°13.676 2°55.759 12.267361 2.882738 25.141489  
2001-11-12 09:09:33 51°13.677 2°55.76 11.343169 2.877333 25.091761  
2001-11-12 09:09:37 51°13.678 2°55.761 11.273148 2.871028 25.035583  
2001-11-12 09:09:43 51°13.68 2°55.761 11.273148 2.871028 25.035583  
2001-11-12 09:09:48 51°13.683 2°55.762 11.532581 2.875031 25.075697  
2001-11-12 09:09:53 51°13.686 2°55.762 11.227777 2.878134 25.104962  
2001-11-12 09:09:58 51°13.689 2°55.762 11.171226 2.880035 25.121585  
2001-11-12 09:10:03 51°13.692 2°55.761 11.11495 2.880536 25.123638  
2001-11-12 09:10:08 51°13.695 2°55.76 11.030006 2.896149 25.270964  
2001-11-12 09:10:13 51°13.698 2°55.759 11.030006 2.896149 25.270964  
2001-11-12 09:10:19 51°13.699 2°55.759 11.279818 2.899352 25.297879  
2001-11-12 09:10:23 51°13.699 2°55.758 11.205218 2.895648 25.26061  
2001-11-12 09:10:28 51°13.7 2°55.758 11.243702 2.892446 25.23425  
2001-11-12 09:10:33 51°13.7 2°55.758 10.931637 2.869727 25.021437  
2001-11-12 09:10:38 51°13.7 2°55.758 11.155238 2.852213 24.858179  
2001-11-12 09:10:43 51°13.701 2°55.757 11.155238 2.852213 24.858179  
2001-11-12 09:10:48 51°13.701 2°55.757 11.446569 2.8352 24.703598  
2001-11-12 09:10:53 51°13.701 2°55.757 11.518009 2.813285 24.504173  
2001-11-12 09:10:59 51°13.702 2°55.756 11.26933 2.781063 24.212429  
2001-11-12 09:11:03 51°13.702 2°55.756 11.124863 2.74104 23.845015  
2001-11-12 09:11:08 51°13.702 2°55.755 11.016846 2.714226 23.603107  
2001-11-12 09:11:13 51°13.703 2°55.755 11.016846 2.714226 23.603107  
2001-11-12 09:11:17 51°13.703 2°55.755 11.394292 2.695717 23.431849  
2001-11-12 09:11:23 51°13.703 2°55.754 10.909808 2.686213 23.348745  
2001-11-12 09:11:28 51°13.704 2°55.754 11.182605 2.676309 23.259244  
2001-11-12 09:11:33 51°13.704 2°55.753 11.255344 2.687814 23.366615  
2001-11-12 09:11:38 51°13.704 2°55.753 11.105727 2.697518 23.45784  
2001-11-12 09:11:43 51°13.704 2°55.752 11.105727 2.697518 23.45784  
2001-11-12 09:11:48 51°13.705 2°55.752 10.764687 2.702721 23.505002  
2001-11-12 09:11:53 51°13.705 2°55.752 11.068224 2.703221 23.50668  
2001-11-12 09:11:58 51°13.705 2°55.751 11.064486 2.710424 23.572458  
2001-11-12 09:12:03 51°13.706 2°55.751 11.10379 2.712725 23.592909  
2001-11-12 09:12:08 51°13.706 2°55.751 11.026358 2.712025 23.585692  
2001-11-12 09:12:13 51°13.706 2°55.75 11.026358 2.712025 23.585692  
2001-11-12 09:12:18 51°13.707 2°55.75 10.949575 2.711525 23.578831  
2001-11-12 09:12:23 51°13.707 2°55.749 11.555945 2.713926 23.600756  
2001-11-12 09:12:28 51°13.707 2°55.749 11.099132 2.715527 23.615027  
2001-11-12 09:12:33 51°13.707 2°55.748 11.28897 2.711925 23.58162  
2001-11-12 09:12:38 51°13.708 2°55.748 11.063701 2.713626 23.598405  
2001-11-12 09:12:43 51°13.708 2°55.747 11.063701 2.713626 23.598405  
2001-11-12 09:12:48 51°13.708 2°55.746 11.329842 2.716627 23.626072  
2001-11-12 09:12:53 51°13.709 2°55.746 11.482849 2.718628 23.646253  
2001-11-12 09:12:58 51°13.709 2°55.745 11.17786 2.713326 23.59917  
2001-11-12 09:13:03 51°13.71 2°55.745 11.253872 2.714326 23.606662  
2001-11-12 09:13:08 51°13.71 2°55.744 11.557319 2.712025 23.585692  
2001-11-12 09:13:13 51°13.711 2°55.743 11.557319 2.712025 23.585692  
2001-11-12 09:13:18 51°13.711 2°55.742 11.292511 2.713726 23.60144  
2001-11-12 09:13:23 51°13.712 2°55.741 11.106603 2.716627 23.629193  
2001-11-12 09:13:28 51°13.712 2°55.74 11.219905 2.713326 23.597093  
2001-11-12 09:13:33 51°13.713 2°55.739 11.143762 2.715327 23.615712  
2001-11-12 09:13:38 51°13.714 2°55.737 10.9167 2.72103 23.668703  
2001-11-12 09:13:43 51°13.715 2°55.736 10.9167 2.72103 23.668703  
2001-11-12 09:13:48 51°13.716 2°55.734 10.919382 2.719229 23.650955  
2001-11-12 09:13:53 51°13.718 2°55.732 11.18325 2.718028 23.640511  
2001-11-12 09:13:58 51°13.719 2°55.73 10.996155 2.72213 23.679754  
2001-11-12 09:14:03 51°13.721 2°55.728 11.109416 2.72113 23.671224  
2001-11-12 09:14:08 51°13.724 2°55.725 11.109785 2.723631 23.694635  
2001-11-12 09:14:13 51°13.726 2°55.722 11.109785 2.723631 23.694635  
2001-11-12 09:14:18 51°13.73 2°55.718 11.110708 2.717828 23.639117  
2001-11-12 09:14:23 51°13.734 2°55.714 11.0715 2.725032 23.706994  
2001-11-12 09:14:28 51°13.739 2°55.709 11.261602 2.725832 23.714131  
2001-11-12 09:14:33 51°13.745 2°55.705 11.200383 2.720429 23.663481  
2001-11-12 09:14:38 51°13.751 2°55.699 11.046994 2.728533 23.741028  
2001-11-12 09:14:43 51°13.758 2°55.694 11.046994 2.728533 23.741028  
2001-11-12 09:14:48 51°13.765 2°55.687 11.257967 2.727533 23.730408  
2001-11-12 09:14:53 51°13.773 2°55.681 11.127398 2.723331 23.69072  
2001-11-12 09:14:57 51°13.779 2°55.675 11.245543 2.724231 23.698292  
2001-11-12 09:15:03 51°13.79 2°55.667 11.245451 2.731035 23.762876  
2001-11-12 09:15:08 51°13.799 2°55.659 11.283268 2.744442 23.886505  
2001-11-12 09:15:13 51°13.809 2°55.652 11.283268 2.744442 23.886505  
2001-11-12 09:15:18 51°13.819 2°55.644 11.173438 2.771758 24.136545  
2001-11-12 09:15:23 51°13.83 2°55.636 11.28313 2.804379 24.436496  
2001-11-12 09:15:28 51°13.84 2°55.629 11.158602 2.837702 24.745536  
2001-11-12 09:15:33 51°13.851 2°55.62 11.182236 2.859819 24.94654  
2001-11-12 09:15:37 51°13.86 2°55.614 11.24904 2.864723 24.989277  
2001-11-12 09:15:43 51°13.873 2°55.604 11.24904 2.864723 24.989277  
2001-11-12 09:15:48 51°13.885 2°55.597 11.043763 2.867025 25.008103  
2001-11-12 09:15:53 51°13.896 2°55.589 10.950731 2.864823 24.985849  
2001-11-12 09:15:59 51°13.909 2°55.58 10.937185 2.861821 24.957004  
2001-11-12 09:16:03 51°13.918 2°55.573 11.348039 2.856517 24.909336  
2001-11-12 09:16:08 51°13.929 2°55.566 10.924377 2.8351 24.708605  
2001-11-12 09:16:13 51°13.94 2°55.558 10.924377 2.8351 24.708605  
2001-11-12 09:16:17 51°13.949 2°55.552 11.150491 2.813285 24.506326  
2001-11-12 09:16:23 51°13.962 2°55.543 11.090415 2.788568 24.276348  
2001-11-12 09:16:28 51°13.972 2°55.535 11.077082 2.75985 24.010854  
2001-11-12 09:16:33 51°13.983 2°55.527 11.337608 2.736237 23.795396  
2001-11-12 09:16:38 51°13.994 2°55.519 10.949436 2.710524 23.55423  
2001-11-12 09:16:43 51°14.005 2°55.511 10.949436 2.710524 23.55423  
2001-11-12 09:16:48 51°14.015 2°55.503 10.677664 2.693316 23.395512  
2001-11-12 09:16:53 51°14.026 2°55.495 11.007009 2.680811 23.281234  
2001-11-12 09:16:58 51°14.037 2°55.487 11.149477 2.670807 23.193402  
2001-11-12 09:17:03 51°14.047 2°55.479 10.911658 2.657001 23.068775  
2001-11-12 09:17:08 51°14.058 2°55.471 10.786007 2.657502 23.079138  
2001-11-12 09:17:13 51°14.068 2°55.463 10.786007 2.657502 23.079138  
2001-11-12 09:17:17 51°14.077 2°55.457 11.04524 2.652 23.032718  
2001-11-12 09:17:23 51°14.089 2°55.447 10.773587 2.647198 22.990945  
2001-11-12 09:17:28 51°14.1 2°55.439 11.14897 2.639496 22.922495  
2001-11-12 09:17:33 51°14.11 2°55.43 11.024558 2.635694 22.894298  
2001-11-12 09:17:38 51°14.121 2°55.422 10.70124 2.626992 22.817292  
2001-11-12 09:17:43 51°14.13 2°55.412 10.70124 2.626992 22.817292  
2001-11-12 09:17:48 51°14.141 2°55.403 11.01426 2.622691 22.781274  
2001-11-12 09:17:53 51°14.15 2°55.394 10.724437 2.618589 22.748665  
2001-11-12 09:17:58 51°14.16 2°55.385 10.917116 2.613588 22.703946  
2001-11-12 09:18:03 51°14.17 2°55.375 10.894496 2.608587 22.660727  
2001-11-12 09:18:08 51°14.18 2°55.364 10.496243 2.596684 22.552656  
2001-11-12 09:18:13 51°14.189 2°55.354 10.496243 2.596684 22.552656  
2001-11-12 09:18:18 51°14.199 2°55.343 10.679567 2.57908 22.393212  
2001-11-12 09:18:23 51°14.208 2°55.332 10.704767 2.554276 22.16715  
2001-11-12 09:18:28 51°14.217 2°55.321 10.756759 2.517172 21.828942  
2001-11-12 09:18:33 51°14.226 2°55.309 10.882975 2.482972 21.517092  
2001-11-12 09:18:38 51°14.235 2°55.297 10.787212 2.447675 21.198284  
2001-11-12 09:18:43 51°14.243 2°55.285 10.787212 2.447675 21.198284  
2001-11-12 09:18:48 51°14.252 2°55.272 10.505226 2.424478 20.988361  
2001-11-12 09:18:53 51°14.26 2°55.259 10.697946 2.409281 20.855756  
2001-11-12 09:18:58 51°14.268 2°55.246 10.683559 2.390685 20.687669  
2001-11-12 09:19:03 51°14.276 2°55.233 10.402989 2.369691 20.501438  
2001-11-12 09:19:08 51°14.285 2°55.219 10.668705 2.340201 20.227982  
2001-11-12 09:19:12 51°14.291 2°55.208 10.668705 2.340201 20.227982  
2001-11-12 09:19:17 51°14.299 2°55.194 10.516534 2.316911 20.020977  
2001-11-12 09:19:23 51°14.308 2°55.178 10.497174 2.299119 19.862876  
2001-11-12 09:19:28 51°14.316 2°55.164 10.560864 2.291023 19.792928  
2001-11-12 09:19:33 51°14.323 2°55.149 10.786332 2.281229 19.707779  
2001-11-12 09:19:38 51°14.331 2°55.135 10.82835 2.265637 19.565645  
2001-11-12 09:19:43 51°14.338 2°55.12 10.82835 2.265637 19.565645  
2001-11-12 09:19:48 51°14.345 2°55.106 10.802086 2.255543 19.47505  
2001-11-12 09:19:53 51°14.352 2°55.091 10.738815 2.262139 19.538246  
2001-11-12 09:19:57 51°14.358 2°55.079 10.8271 2.276031 19.66696  
2001-11-12 09:20:03 51°14.367 2°55.062 11.063701 2.308815 19.969689  
2001-11-12 09:20:08 51°14.375 2°55.048 10.955446 2.341001 20.258947  
2001-11-12 09:20:13 51°14.382 2°55.034 10.955446 2.341001 20.258947  
2001-11-12 09:20:18 51°14.391 2°55.022 11.075283 2.396284 20.769796  
2001-11-12 09:20:23 51°14.401 2°55.011 10.911427 2.456974 21.324875  
2001-11-12 09:20:27 51°14.409 2°55.003 11.126753 2.529074 21.984534  
2001-11-12 09:20:32 51°14.42 2°54.994 11.231414 2.57688 22.412342  
2001-11-12 09:20:37 51°14.432 2°54.987 11.45111 2.634795 22.943389  
2001-11-12 09:20:42 51°14.443 2°54.979 11.45111 2.634795 22.943389  
2001-11-12 09:20:48 51°14.458 2°54.97 11.165974 2.701821 23.551895  
2001-11-12 09:20:53 51°14.47 2°54.962 11.225568 2.769857 24.176295  
2001-11-12 09:20:57 51°14.479 2°54.955 11.526716 2.803078 24.469745  
2001-11-12 09:21:03 51°14.494 2°54.945 11.245911 2.842406 24.824535  
2001-11-12 09:21:08 51°14.506 2°54.935 11.411187 2.869127 25.064074  
2001-11-12 09:21:13 51°14.518 2°54.925 11.411187 2.869127 25.064074  
2001-11-12 09:21:17 51°14.529 2°54.917 11.604798 2.89725 25.313767  
2001-11-12 09:21:23 51°14.544 2°54.904 11.381756 2.914565 25.464895  
2001-11-12 09:21:28 51°14.556 2°54.893 11.727117 2.939788 25.691032  
2001-11-12 09:21:32 51°14.567 2°54.884 11.323085 2.972119 25.982277  
2001-11-12 09:21:37 51°14.579 2°54.872 11.415318 3.025876 26.46877  
2001-11-12 09:21:43 51°14.595 2°54.857 11.415318 3.025876 26.46877  
2001-11-12 09:21:48 51°14.608 2°54.844 11.387864 3.075532 26.9169  
2001-11-12 09:21:53 51°14.622 2°54.832 11.257415 3.127896 27.396644  
2001-11-12 09:21:58 51°14.635 2°54.82 11.642455 3.173256 27.804516  
2001-11-12 09:22:03 51°14.649 2°54.807 11.687359 3.209706 28.128445  
2001-11-12 09:22:08 51°14.662 2°54.795 11.698055 3.244656 28.446399  
2001-11-12 09:22:12 51°14.673 2°54.785 11.698055 3.244656 28.446399  
2001-11-12 09:22:17 51°14.686 2°54.771 11.559563 3.274901 28.718732  
2001-11-12 09:22:23 51°14.702 2°54.755 11.640077 3.291927 28.869609  
2001-11-12 09:22:28 51°14.714 2°54.742 11.460285 3.314562 29.066725  
2001-11-12 09:22:33 51°14.728 2°54.728 11.463221 3.326581 29.171428  
2001-11-12 09:22:38 51°14.741 2°54.715 11.429316 3.336897 29.265927  
2001-11-12 09:22:43 51°14.754 2°54.702 11.429316 3.336897 29.265927  
2001-11-12 09:22:48 51°14.769 2°54.689 11.660613 3.349017 29.372853  
2001-11-12 09:22:53 51°14.783 2°54.678 11.398149 3.360135 29.47195  
2001-11-12 09:22:57 51°14.795 2°54.668 11.624796 3.367046 29.52887  
2001-11-12 09:23:03 51°14.812 2°54.653 11.78018 3.374458 29.597704  
2001-11-12 09:23:08 51°14.827 2°54.641 11.641037 3.379266 29.636082  
2001-11-12 09:23:13 51°14.842 2°54.629 11.641037 3.379266 29.636082  
2001-11-12 09:23:18 51°14.857 2°54.617 11.496695 3.384174 29.680573  
2001-11-12 09:23:23 51°14.871 2°54.604 11.426287 3.390285 29.731591  
2001-11-12 09:23:28 51°14.886 2°54.591 11.543897 3.392488 29.747852  
2001-11-12 09:23:32 51°14.897 2°54.58 11.50953 3.394391 29.765061  
2001-11-12 09:23:37 51°14.912 2°54.566 11.886226 3.396295 29.780332  
2001-11-12 09:23:43 51°14.928 2°54.549 11.886226 3.396295 29.780332  
2001-11-12 09:23:48 51°14.943 2°54.535 11.997926 3.397697 29.783631  
2001-11-12 09:23:53 51°14.957 2°54.522 11.69705 3.401103 29.816082  
2001-11-12 09:23:57 51°14.968 2°54.511 11.621547 3.40551 29.853097  
2001-11-12 09:24:03 51°14.986 2°54.495 11.660567 3.41132 29.905031  
2001-11-12 09:24:08 51°15 2°54.483 11.850304 3.417431 29.957289  
2001-11-12 09:24:13 51°15.015 2°54.469 11.850304 3.417431 29.957289  
2001-11-12 09:24:17 51°15.027 2°54.459 11.74315 3.416529 29.947229  
2001-11-12 09:24:23 51°15.044 2°54.443 11.71309 3.417931 29.960211  
2001-11-12 09:24:28 51°15.059 2°54.429 11.905775 3.417731 29.958263  
2001-11-12 09:24:33 51°15.074 2°54.415 11.725152 3.414526 29.926463  
2001-11-12 09:24:38 51°15.089 2°54.401 12.142496 3.413123 29.910244  
2001-11-12 09:24:43 51°15.104 2°54.388 12.142496 3.413123 29.910244  
2001-11-12 09:24:47 51°15.117 2°54.378 11.741003 3.413424 29.91446  
2001-11-12 09:24:52 51°15.133 2°54.368 11.635044 3.414726 29.923873  
2001-11-12 09:24:58 51°15.153 2°54.359 11.645245 3.41713 29.941398  
2001-11-12 09:25:03 51°15.171 2°54.352 11.660293 3.419634 29.961189  
2001-11-12 09:25:08 51°15.188 2°54.345 11.708246 3.421638 29.976111  
2001-11-12 09:25:13 51°15.205 2°54.338 11.708246 3.421638 29.976111  
2001-11-12 09:25:17 51°15.219 2°54.332 11.89894 3.424242 29.99622  
2001-11-12 09:25:23 51°15.24 2°54.323 11.529236 3.426947 30.013401  
2001-11-12 09:25:28 51°15.258 2°54.315 11.838538 3.430954 30.04582  
2001-11-12 09:25:33 51°15.275 2°54.308 11.910467 3.433458 30.066241  
2001-11-12 09:25:37 51°15.289 2°54.302 11.685759 3.43496 30.071731  
2001-11-12 09:25:43 51°15.311 2°54.294 11.685759 3.43496 30.071731  
2001-11-12 09:25:48 51°15.329 2°54.286 11.799852 3.438667 30.099261  
2001-11-12 09:25:53 51°15.347 2°54.279 11.838584 3.44608 30.162762  
2001-11-12 09:25:57 51°15.361 2°54.272 11.727939 3.451589 30.209731  
2001-11-12 09:26:03 51°15.383 2°54.262 11.882079 3.456498 30.254124  
2001-11-12 09:26:08 51°15.401 2°54.254 11.92263 3.461106 30.2956  
2001-11-12 09:26:12 51°15.416 2°54.248 11.92263 3.461106 30.2956  
2001-11-12 09:26:17 51°15.434 2°54.24 11.735705 3.467418 30.356236  
2001-11-12 09:26:23 51°15.455 2°54.231 11.9997 3.470123 30.378573  
2001-11-12 09:26:28 51°15.47 2°54.224 11.795471 3.471926 30.398713  
2001-11-12 09:26:33 51°15.484 2°54.216 11.70162 3.472827 30.403533  
2001-11-12 09:26:38 51°15.497 2°54.21 11.725518 3.474531 30.416793  
2001-11-12 09:26:43 51°15.509 2°54.204 11.725518 3.474531 30.416793  
2001-11-12 09:26:47 51°15.518 2°54.199 11.669255 3.475132 30.420661  
2001-11-12 09:26:53 51°15.53 2°54.191 12.352902 3.476534 30.43297  
2001-11-12 09:26:58 51°15.539 2°54.185 12.17395 3.48004 30.460453  
2001-11-12 09:27:03 51°15.548 2°54.179 12.180711 3.47974 30.452277  
2001-11-12 09:27:08 51°15.556 2°54.173 12.222168 3.484448 30.486821  
2001-11-12 09:27:13 51°15.564 2°54.168 12.222168 3.484448 30.486821  
2001-11-12 09:27:18 51°15.571 2°54.162 12.003522 3.484949 30.479196  
2001-11-12 09:27:23 51°15.578 2°54.157 12.22906 3.488155 30.496505  
2001-11-12 09:27:28 51°15.584 2°54.152 12.156296 3.492563 30.524806  
2001-11-12 09:27:33 51°15.59 2°54.147 12.08377 3.498173 30.568036  
2001-11-12 09:27:38 51°15.597 2°54.142 12.160336 3.500477 30.582483  
2001-11-12 09:27:43 51°15.603 2°54.137 12.160336 3.500477 30.582483  
2001-11-12 09:27:48 51°15.61 2°54.13 12.12438 3.502581 30.596957  
2001-11-12 09:27:53 51°15.618 2°54.122 12.014895 3.503783 30.604004  
2001-11-12 09:27:58 51°15.627 2°54.113 12.092176 3.504384 30.607198  
2001-11-12 09:28:03 51°15.636 2°54.103 12.242343 3.505486 30.613271  
2001-11-12 09:28:08 51°15.645 2°54.091 12.318862 3.506888 30.624891  
2001-11-12 09:28:13 51°15.656 2°54.078 12.318862 3.506888 30.624891  
2001-11-12 09:28:17 51°15.664 2°54.066 12.061319 3.508391 30.63748  
2001-11-12 09:28:23 51°15.678 2°54.048 12.287794 3.509894 30.648751  
2001-11-12 09:28:28 51°15.691 2°54.034 12.293003 3.509193 30.640637  
2001-11-12 09:28:33 51°15.705 2°54.02 12.329139 3.510395 30.65097  
2001-11-12 09:28:37 51°15.716 2°54.008 12.184295 3.512499 30.670042  
2001-11-12 09:28:43 51°15.733 2°53.989 12.184295 3.512499 30.670042  
2001-11-12 09:28:48 51°15.747 2°53.973 12.524017 3.510194 30.649028  
2001-11-12 09:28:53 51°15.762 2°53.957 12.492186 3.511998 30.657938  
2001-11-12 09:28:58 51°15.777 2°53.941 12.38679 3.511296 30.651801  
2001-11-12 09:29:03 51°15.792 2°53.925 12.243794 3.510695 30.643343  
2001-11-12 09:29:08 51°15.807 2°53.91 12.35521 3.511697 30.649097  
2001-11-12 09:29:13 51°15.822 2°53.893 12.35521 3.511697 30.649097  
2001-11-12 09:29:17 51°15.834 2°53.88 12.543017 3.511397 30.646186  
2001-11-12 09:29:23 51°15.853 2°53.861 12.284215 3.512699 30.656168  
2001-11-12 09:29:28 51°15.868 2°53.846 12.285302 3.512599 30.647955  
2001-11-12 09:29:33 51°15.884 2°53.83 12.136186 3.511396 30.634338  
2001-11-12 09:29:37 51°15.896 2°53.817 12.585241 3.513801 30.653014  
2001-11-12 09:29:42 51°15.911 2°53.799 12.585241 3.513801 30.653014  
2001-11-12 09:29:48 51°15.929 2°53.779 12.404473 3.513801 30.648407  
2001-11-12 09:29:53 51°15.944 2°53.763 12.372721 3.514702 30.654504  
2001-11-12 09:29:58 51°15.959 2°53.747 12.229196 3.512398 30.632197  
2001-11-12 09:30:03 51°15.975 2°53.732 12.310757 3.5133 30.638295  
2001-11-12 09:30:08 51°15.991 2°53.717 12.02531 3.512799 30.633446  
2001-11-12 09:30:13 51°16.007 2°53.703 12.02531 3.512799 30.633446  
2001-11-12 09:30:18 51°16.024 2°53.689 12.188787 3.514201 30.643076  
2001-11-12 09:30:22 51°16.037 2°53.677 12.877548 3.5135 30.631686  
2001-11-12 09:30:28 51°16.056 2°53.66 12.390453 3.508992 30.587407  
2001-11-12 09:30:33 51°16.072 2°53.645 12.690865 3.508991 30.580845  
2001-11-12 09:30:38 51°16.087 2°53.63 12.47281 3.508691 30.577938  
2001-11-12 09:30:43 51°16.103 2°53.614 12.47281 3.508691 30.577938  
2001-11-12 09:30:48 51°16.119 2°53.599 12.438786 3.505285 30.539096  
2001-11-12 09:30:53 51°16.134 2°53.583 12.621489 3.504683 30.528046  
2001-11-12 09:30:58 51°16.15 2°53.568 12.404021 3.505284 30.52273  
2001-11-12 09:31:03 51°16.166 2°53.553 12.030312 3.50829 30.539341  
2001-11-12 09:31:08 51°16.182 2°53.537 12.479721 3.510594 30.55964  
2001-11-12 09:31:13 51°16.197 2°53.522 12.479721 3.510594 30.55964  
2001-11-12 09:31:17 51°16.21 2°53.511 12.593313 3.511395 30.563455  
2001-11-12 09:31:23 51°16.229 2°53.493 12.414918 3.511796 30.562744  
2001-11-12 09:31:28 51°16.245 2°53.478 12.118839 3.515804 30.600802  
2001-11-12 09:31:32 51°16.257 2°53.466 12.455235 3.517907 30.621784  
2001-11-12 09:31:38 51°16.276 2°53.447 12.754995 3.520011 30.63424  
2001-11-12 09:31:43 51°16.292 2°53.432 12.754995 3.520011 30.63424  
2001-11-12 09:31:48 51°16.309 2°53.418 12.277556 3.519911 30.634584  
2001-11-12 09:31:53 51°16.325 2°53.403 12.1656 3.520212 30.63552  
2001-11-12 09:31:58 51°16.341 2°53.389 12.353626 3.51911 30.62094  
2001-11-12 09:32:03 51°16.357 2°53.374 12.392489 3.522917 30.656402  
2001-11-12 09:32:08 51°16.372 2°53.359 12.320809 3.527024 30.695428  
2001-11-12 09:32:13 51°16.388 2°53.342 12.320809 3.527024 30.695428  
2001-11-12 09:32:18 51°16.403 2°53.326 12.508216 3.526724 30.684642  
2001-11-12 09:32:23 51°16.418 2°53.31 12.179622 3.524219 30.656515  
2001-11-12 09:32:28 51°16.434 2°53.295 12.180983 3.528727 30.700054  
2001-11-12 09:32:32 51°16.446 2°53.282 12.77411 3.531933 30.729048  
2001-11-12 09:32:37 51°16.462 2°53.267 12.331086 3.531833 30.728738  
2001-11-12 09:32:43 51°16.481 2°53.249 12.331086 3.531833 30.728738  
2001-11-12 09:32:48 51°16.497 2°53.234 12.8143 3.534138 30.749023  
2001-11-12 09:32:53 51°16.512 2°53.219 12.485593 3.533136 30.738688  
2001-11-12 09:32:58 51°16.529 2°53.204 12.668438 3.532935 30.730178  
2001-11-12 09:33:03 51°16.545 2°53.189 12.29785 3.534138 30.739158  
2001-11-12 09:33:08 51°16.561 2°53.174 12.556734 3.533136 30.730798  
2001-11-12 09:33:13 51°16.577 2°53.16 12.556734 3.533136 30.730798  
2001-11-12 09:33:17 51°16.59 2°53.148 12.666772 3.533236 30.731108  
2001-11-12 09:33:23 51°16.61 2°53.131 12.368785 3.535139 30.74686  
2001-11-12 09:33:28 51°16.626 2°53.117 12.072046 3.534037 30.738191  
2001-11-12 09:33:33 51°16.642 2°53.102 12.850603 3.536542 30.757116  
2001-11-12 09:33:38 51°16.659 2°53.088 12.407864 3.536141 30.753246  
2001-11-12 09:33:42 51°16.672 2°53.077 12.407864 3.536141 30.753246  
2001-11-12 09:33:48 51°16.692 2°53.06 12.514717 3.537844 30.767718  
2001-11-12 09:33:53 51°16.708 2°53.045 12.367835 3.536342 30.751893  
2001-11-12 09:33:58 51°16.724 2°53.03 12.255896 3.536943 30.763616  
2001-11-12 09:34:03 51°16.74 2°53.015 12.369735 3.537945 30.769343  
2001-11-12 09:34:08 51°16.756 2°53.001 12.18366 3.537343 30.762881  
2001-11-12 09:34:12 51°16.769 2°52.989 12.18366 3.537343 30.762881  
2001-11-12 09:34:17 51°16.785 2°52.974 12.51553 3.537143 30.764894  
2001-11-12 09:34:23 51°16.804 2°52.956 12.18611 3.536742 30.761024  
2001-11-12 09:34:28 51°16.819 2°52.94 12.37168 3.538746 30.781032  
2001-11-12 09:34:33 51°16.835 2°52.924 12.483922 3.539748 30.790049  
2001-11-12 09:34:38 51°16.85 2°52.908 12.483109 3.540149 30.79392  
2001-11-12 09:34:43 51°16.865 2°52.891 12.483109 3.540149 30.79392  
2001-11-12 09:34:48 51°16.88 2°52.874 12.631945 3.537344 30.765513  
2001-11-12 09:34:52 51°16.893 2°52.861 12.078272 3.539648 30.788423  
2001-11-12 09:34:58 51°16.911 2°52.842 12.670915 3.540149 30.793261  
2001-11-12 09:35:03 51°16.927 2°52.826 12.222259 3.538947 30.784284  
2001-11-12 09:35:08 51°16.943 2°52.81 12.407548 3.539447 30.783197  
2001-11-12 09:35:13 51°16.958 2°52.793 12.407548 3.539447 30.783197  
2001-11-12 09:35:18 51°16.974 2°52.776 12.626087 3.540249 30.788303  
2001-11-12 09:35:23 51°16.989 2°52.76 12.587722 3.540349 30.791246  
2001-11-12 09:35:28 51°17.005 2°52.743 12.548477 3.539948 30.786059  
2001-11-12 09:35:32 51°17.018 2°52.731 12.695142 3.541652 30.801189  
2001-11-12 09:35:37 51°17.033 2°52.714 12.424593 3.542253 30.806994  
2001-11-12 09:35:43 51°17.052 2°52.694 12.424593 3.542253 30.806994  
2001-11-12 09:35:48 51°17.067 2°52.677 12.467886 3.543555 30.820889  
2001-11-12 09:35:53 51°17.082 2°52.659 12.540039 3.542654 30.814816  
2001-11-12 09:35:57 51°17.094 2°52.645 12.461561 3.543155 30.819655  
2001-11-12 09:36:03 51°17.111 2°52.622 12.529929 3.543555 30.82023  
2001-11-12 09:36:08 51°17.125 2°52.603 12.490877 3.543155 30.823609  
2001-11-12 09:36:13 51°17.139 2°52.584 12.490877 3.543155 30.823609  
2001-11-12 09:36:17 51°17.151 2°52.569 12.2311 3.542654 30.820748  
2001-11-12 09:36:23 51°17.168 2°52.545 12.334707 3.543656 30.830426  
2001-11-12 09:36:28 51°17.182 2°52.527 12.109393 3.544457 30.840148  
2001-11-12 09:36:33 51°17.196 2°52.508 12.514672 3.544457 30.846746  
2001-11-12 09:36:37 51°17.208 2°52.493 12.769253 3.544958 30.854887  
2001-11-12 09:36:43 51°17.225 2°52.471 12.769253 3.544958 30.854887  
2001-11-12 09:36:48 51°17.24 2°52.453 12.655735 3.544157 30.848462  
2001-11-12 09:36:53 51°17.255 2°52.435 12.132871 3.544858 30.857881  
2001-11-12 09:36:57 51°17.267 2°52.421 12.575545 3.54586 30.868226  
2001-11-12 09:37:03 51°17.285 2°52.4 12.198948 3.546662 30.876634  
2001-11-12 09:37:08 51°17.3 2°52.383 12.56129 3.54596 30.875141  
2001-11-12 09:37:13 51°17.316 2°52.367 12.56129 3.54596 30.875141  
2001-11-12 09:37:18 51°17.332 2°52.351 12.596424 3.547363 30.891348  
2001-11-12 09:37:23 51°17.347 2°52.335 12.364803 3.547062 30.891087  
2001-11-12 09:37:28 51°17.363 2°52.319 12.212419 3.546962 30.892764  
2001-11-12 09:37:32 51°17.376 2°52.306 11.944172 3.547063 30.898364  
2001-11-12 09:37:38 51°17.395 2°52.287 12.459076 3.547063 30.902335  
2001-11-12 09:37:43 51°17.411 2°52.271 12.459076 3.547063 30.902335  
2001-11-12 09:37:48 51°17.427 2°52.254 12.043863 3.547063 30.901673  
2001-11-12 09:37:53 51°17.442 2°52.238 12.622932 3.548365 30.916922  
2001-11-12 09:37:57 51°17.454 2°52.225 12.359147 3.547363 30.911864  
2001-11-12 09:38:03 51°17.473 2°52.205 12.088995 3.547764 30.925018  
2001-11-12 09:38:08 51°17.489 2°52.189 11.858602 3.547564 30.927718  
2001-11-12 09:38:13 51°17.504 2°52.172 11.858602 3.547564 30.927718  
2001-11-12 09:38:18 51°17.519 2°52.155 12.151712 3.545761 30.918213  
2001-11-12 09:38:23 51°17.534 2°52.137 12.223665 3.547364 30.937052  
2001-11-12 09:38:28 51°17.549 2°52.119 12.032086 3.545861 30.927805  
2001-11-12 09:38:33 51°17.564 2°52.101 12.142723 3.544859 30.928716  
2001-11-12 09:38:38 51°17.578 2°52.082 12.10326 3.546863 30.950122  
2001-11-12 09:38:43 51°17.593 2°52.064 12.10326 3.546863 30.950122  
2001-11-12 09:38:48 51°17.608 2°52.046 12.132644 3.547665 30.966527  
2001-11-12 09:38:53 51°17.622 2°52.028 12.093539 3.547063 30.963359  
2001-11-12 09:38:58 51°17.638 2°52.01 12.166916 3.547264 30.972615  
2001-11-12 09:39:02 51°17.65 2°51.997 11.972124 3.547064 30.977325  
2001-11-12 09:39:08 51°17.669 2°51.978 12.232098 3.546362 30.971189  
2001-11-12 09:39:13 51°17.685 2°51.962 12.232098 3.546362 30.971189  
2001-11-12 09:39:17 51°17.698 2°51.949 12.335749 3.546563 30.977124  
2001-11-12 09:39:23 51°17.716 2°51.93 12.111936 3.547164 30.984286  
2001-11-12 09:39:28 51°17.732 2°51.913 12.480941 3.547364 30.990224  
2001-11-12 09:39:33 51°17.747 2°51.896 12.030995 3.548066 30.995696  
2001-11-12 09:39:38 51°17.762 2°51.878 12.030494 3.547164 30.994274  
2001-11-12 09:39:42 51°17.775 2°51.864 12.030494 3.547164 30.994274  
2001-11-12 09:39:48 51°17.793 2°51.844 12.06291 3.547565 31.00216  
2001-11-12 09:39:53 51°17.808 2°51.827 12.469738 3.545761 30.986658  
2001-11-12 09:39:58 51°17.824 2°51.81 12.213235 3.546864 31.002018  
2001-11-12 09:40:02 51°17.837 2°51.798 12.251771 3.547765 31.012104  
2001-11-12 09:40:07 51°17.853 2°51.782 11.991056 3.546764 31.009046  
2001-11-12 09:40:13 51°17.872 2°51.762 11.991056 3.546764 31.009046  
2001-11-12 09:40:17 51°17.885 2°51.75 12.212056 3.547164 31.012937  
2001-11-12 09:40:23 51°17.903 2°51.729 12.364713 3.546764 31.01038  
2001-11-12 09:40:28 51°17.919 2°51.713 12.515485 3.547966 31.022721  
2001-11-12 09:40:33 51°17.934 2°51.697 12.25789 3.546964 31.014994  
2001-11-12 09:40:38 51°17.951 2°51.682 12.255669 3.546864 31.013354  
2001-11-12 09:40:43 51°17.967 2°51.667 12.255669 3.546864 31.013354  
2001-11-12 09:40:48 51°17.983 2°51.652 12.293592 3.547866 31.020413  
2001-11-12 09:40:53 51°18 2°51.636 12.181255 3.546663 31.012075  
2001-11-12 09:40:57 51°18.012 2°51.623 12.404156 3.546663 31.010074  
2001-11-12 09:41:03 51°18.031 2°51.603 12.225116 3.545862 30.996959  
2001-11-12 09:41:08 51°18.046 2°51.586 12.262558 3.545661 30.998347  
2001-11-12 09:41:13 51°18.061 2°51.569 12.262558 3.545661 30.998347  
2001-11-12 09:41:18 51°18.076 2°51.552 11.89771 3.547565 31.011493  
2001-11-12 09:41:23 51°18.091 2°51.535 12.122291 3.547766 31.019441  
2001-11-12 09:41:28 51°18.107 2°51.518 12.054274 3.548066 31.023026  
2001-11-12 09:41:33 51°18.123 2°51.503 12.390091 3.548266 31.02297  
2001-11-12 09:41:38 51°18.139 2°51.487 12.281406 3.549769 31.03556  
2001-11-12 09:41:43 51°18.155 2°51.472 12.281406 3.549769 31.03556  
2001-11-12 09:41:48 51°18.171 2°51.456 12.135595 3.550771 31.040615  
2001-11-12 09:41:53 51°18.187 2°51.441 11.986596 3.551873 31.053317  
2001-11-12 09:41:57 51°18.2 2°51.429 11.986733 3.553877 31.067429  
2001-11-12 09:42:03 51°18.221 2°51.413 12.027175 3.55558 31.082629  
2001-11-12 09:42:08 51°18.239 2°51.402 12.472087 3.557584 31.098073  
2001-11-12 09:42:13 51°18.257 2°51.393 12.472087 3.557584 31.098073  
2001-11-12 09:42:18 51°18.276 2°51.387 11.992876 3.557684 31.097708  
2001-11-12 09:42:23 51°18.296 2°51.385 12.255896 3.559287 31.110596  
2001-11-12 09:42:28 51°18.315 2°51.384 12.187516 3.559388 31.1109  
2001-11-12 09:42:33 51°18.336 2°51.387 12.414466 3.559888 31.113089  
2001-11-12 09:42:37 51°18.351 2°51.39 12.269083 3.559688 31.109807  
2001-11-12 09:42:43 51°18.374 2°51.398 12.269083 3.559688 31.109807  
2001-11-12 09:42:48 51°18.394 2°51.405 12.419032 3.561091 31.11941  
2001-11-12 09:42:53 51°18.414 2°51.414 12.381497 3.558686 31.096073  
2001-11-12 09:42:57 51°18.43 2°51.422 12.237039 3.557584 31.082039  
2001-11-12 09:43:03 51°18.454 2°51.435 12.754995 3.555881 31.062177  
2001-11-12 09:43:08 51°18.473 2°51.447 12.197996 3.554578 31.046207  
2001-11-12 09:43:13 51°18.492 2°51.459 12.197996 3.554578 31.046207  
2001-11-12 09:43:18 51°18.511 2°51.474 12.53539 3.551672 31.016694  
2001-11-12 09:43:23 51°18.53 2°51.489 12.275109 3.552173 31.017556  
2001-11-12 09:43:28 51°18.549 2°51.504 12.12438 3.555179 31.045371  
2001-11-12 09:43:32 51°18.564 2°51.516 12.313791 3.554778 31.039485  
2001-11-12 09:43:37 51°18.583 2°51.531 12.201534 3.553877 31.03274  
2001-11-12 09:43:43 51°18.606 2°51.548 12.201534 3.553877 31.03274  
2001-11-12 09:43:47 51°18.621 2°51.559 12.311481 3.554578 31.039541  
2001-11-12 09:43:53 51°18.644 2°51.575 12.163376 3.554277 31.03596  
2001-11-12 09:43:58 51°18.663 2°51.588 12.12497 3.556482 31.058002  
2001-11-12 09:44:03 51°18.683 2°51.599 12.125243 3.55578 31.051201  
2001-11-12 09:44:08 51°18.703 2°51.61 11.97663 3.555079 31.045066  
2001-11-12 09:44:13 51°18.723 2°51.62 11.97663 3.555079 31.045066  
2001-11-12 09:44:17 51°18.739 2°51.628 12.344122 3.554778 31.042151  
2001-11-12 09:44:23 51°18.762 2°51.637 12.198222 3.556682 31.058612  
2001-11-12 09:44:28 51°18.783 2°51.645 12.383804 3.556181 31.053087  
2001-11-12 09:44:33 51°18.803 2°51.651 12.343127 3.556281 31.054725  
2001-11-12 09:44:37 51°18.819 2°51.656 11.937569 3.55568 31.052229  
2001-11-12 09:44:43 51°18.844 2°51.662 11.937569 3.55568 31.052229  
2001-11-12 09:44:48 51°18.864 2°51.666 12.459302 3.554979 31.044761  
2001-11-12 09:44:53 51°18.885 2°51.669 12.313655 3.555981 31.055144  
2001-11-12 09:44:57 51°18.901 2°51.67 12.49747 3.556782 31.058917  
2001-11-12 09:45:03 51°18.925 2°51.67 12.279232 3.557684 31.070997  
2001-11-12 09:45:08 51°18.945 2°51.668 11.758266 3.555981 31.054477  
2001-11-12 09:45:13 51°18.964 2°51.663 11.758266 3.555981 31.054477  
2001-11-12 09:45:18 51°18.983 2°51.658 12.095947 3.555981 31.058479  
2001-11-12 09:45:23 51°19.001 2°51.65 12.361907 3.555981 31.053144  
2001-11-12 09:45:27 51°19.015 2°51.643 12.291418 3.556782 31.05425  
2001-11-12 09:45:33 51°19.036 2°51.629 12.516704 3.556381 31.056364  
2001-11-12 09:45:38 51°19.053 2°51.616 12.188968 3.555981 31.055144  
2001-11-12 09:45:43 51°19.07 2°51.604 12.188968 3.555981 31.055144  
2001-11-12 09:45:48 51°19.088 2°51.592 12.231962 3.556381 31.055697  
2001-11-12 09:45:53 51°19.105 2°51.58 12.197587 3.556081 31.051449  
2001-11-12 09:45:57 51°19.119 2°51.572 12.314742 3.557884 31.064936  
2001-11-12 09:46:03 51°19.141 2°51.561 12.761787 3.557784 31.061298  
2001-11-12 09:46:08 51°19.159 2°51.552 12.211784 3.557083 31.057164  
2001-11-12 09:46:13 51°19.177 2°51.542 12.211784 3.557083 31.057164  
2001-11-12 09:46:17 51°19.191 2°51.533 12.345209 3.558084 31.058213  
2001-11-12 09:46:23 51°19.211 2°51.518 12.11021 3.557784 31.049968  
2001-11-12 09:46:28 51°19.228 2°51.505 12.446469 3.560689 31.075465  
2001-11-12 09:46:32 51°19.242 2°51.494 12.302062 3.559186 31.056901  
2001-11-12 09:46:37 51°19.258 2°51.48 12.560388 3.56089 31.069409  
2001-11-12 09:46:43 51°19.278 2°51.463 12.560388 3.56089 31.069409  
2001-11-12 09:46:48 51°19.295 2°51.449 12.338555 3.562192 31.081364  
2001-11-12 09:46:53 51°19.311 2°51.433 12.190193 3.560288 31.056923  
2001-11-12 09:46:58 51°19.327 2°51.419 12.420976 3.56139 31.06427  
2001-11-12 09:47:02 51°19.34 2°51.407 11.884494 3.564096 31.086479  
2001-11-12 09:47:08 51°19.36 2°51.39 12.097446 3.564697 31.086971  
2001-11-12 09:47:13 51°19.377 2°51.376 12.097446 3.564697 31.086971  
2001-11-12 09:47:17 51°19.39 2°51.365 12.274067 3.563995 31.082177  
2001-11-12 09:47:23 51°19.41 2°51.348 12.264008 3.565298 31.090795  
2001-11-12 09:47:28 51°19.426 2°51.335 12.286344 3.564797 31.086609  
2001-11-12 09:47:33 51°19.443 2°51.321 12.26428 3.566099 31.093894  
2001-11-12 09:47:38 51°19.46 2°51.308 12.463955 3.568805 31.115427  
2001-11-12 09:47:43 51°19.477 2°51.294 12.463955 3.568805 31.115427  
2001-11-12 09:47:48 51°19.493 2°51.281 12.364306 3.571309 31.123682  
2001-11-12 09:47:53 51°19.509 2°51.266 12.334572 3.576118 31.158899  
2001-11-12 09:47:57 51°19.523 2°51.256 12.376114 3.58213 31.192389  
2001-11-12 09:48:03 51°19.543 2°51.24 12.416229 3.588542 31.23439  
2001-11-12 09:48:08 51°19.56 2°51.227 12.785351 3.593452 31.265834  
2001-11-12 09:48:13 51°19.577 2°51.215 12.785351 3.593452 31.265834  
2001-11-12 09:48:18 51°19.595 2°51.204 12.267044 3.596157 31.277959  
2001-11-12 09:48:23 51°19.613 2°51.194 12.561381 3.599062 31.295351  
2001-11-12 09:48:28 51°19.631 2°51.185 12.449677 3.602569 31.315202  
2001-11-12 09:48:33 51°19.65 2°51.177 12.376702 3.603571 31.318868  
2001-11-12 09:48:37 51°19.665 2°51.171 12.452795 3.606877 31.344785  
2001-11-12 09:48:43 51°19.687 2°51.161 12.452795 3.606877 31.344785  
2001-11-12 09:48:48 51°19.705 2°51.153 12.532908 3.60798 31.349414  
2001-11-12 09:48:52 51°19.719 2°51.144 12.615539 3.609583 31.361551  
2001-11-12 09:48:57 51°19.737 2°51.134 12.806614 3.608481 31.35091  
2001-11-12 09:49:03 51°19.757 2°51.119 12.483967 3.60838 31.349275  
2001-11-12 09:49:08 51°19.774 2°51.107 12.753915 3.60828 31.345635  
2001-11-12 09:49:13 51°19.791 2°51.095 12.753915 3.60828 31.345635  
2001-11-12 09:49:17 51°19.805 2°51.085 12.729935 3.609483 31.360583  
2001-11-12 09:49:23 51°19.825 2°51.071 12.520089 3.612589 31.388566  
2001-11-12 09:49:28 51°19.842 2°51.059 12.496115 3.612989 31.386417  
2001-11-12 09:49:33 51°19.86 2°51.048 12.585602 3.614593 31.39788  
2001-11-12 09:49:38 51°19.877 2°51.038 12.530652 3.616296 31.406963  
2001-11-12 09:49:43 51°19.895 2°51.027 12.530652 3.616296 31.406963  
2001-11-12 09:49:48 51°19.913 2°51.017 12.4729 3.6183 31.42229  
2001-11-12 09:49:53 51°19.93 2°51.007 12.827467 3.622608 31.449142  
2001-11-12 09:49:58 51°19.948 2°50.996 12.541483 3.624813 31.463715  
2001-11-12 09:50:03 51°19.965 2°50.984 12.733985 3.62872 31.488686  
2001-11-12 09:50:08 51°19.982 2°50.971 12.443622 3.629422 31.484737  
2001-11-12 09:50:13 51°19.998 2°50.958 12.443622 3.629422 31.484737  
2001-11-12 09:50:18 51°20.015 2°50.945 12.742804 3.633129 31.513785  
2001-11-12 09:50:23 51°20.032 2°50.932 12.563907 3.637638 31.544522  
2001-11-12 09:50:28 51°20.049 2°50.919 12.310938 3.642648 31.575377  
2001-11-12 09:50:33 51°20.065 2°50.907 12.723005 3.645854 31.596883  
2001-11-12 09:50:37 51°20.079 2°50.896 12.654835 3.650163 31.628998  
2001-11-12 09:50:43 51°20.099 2°50.881 12.654835 3.650163 31.628998  
2001-11-12 09:50:48 51°20.116 2°50.869 12.399453 3.650864 31.622335  
2001-11-12 09:50:53 51°20.133 2°50.858 12.695682 3.654271 31.650443  
2001-11-12 09:50:58 51°20.151 2°50.846 12.548522 3.655774 31.659546  
2001-11-12 09:51:03 51°20.168 2°50.834 12.657763 3.658079 31.677035  
2001-11-12 09:51:08 51°20.185 2°50.823 12.986341 3.659582 31.688147  
2001-11-12 09:51:13 51°20.203 2°50.813 12.986341 3.659582 31.688147  
2001-11-12 09:51:18 51°20.221 2°50.803 12.835869 3.661185 31.698208  
2001-11-12 09:51:23 51°20.238 2°50.793 12.91081 3.662187 31.703151  
2001-11-12 09:51:28 51°20.256 2°50.783 12.910945 3.66349 31.711657  
2001-11-12 09:51:33 51°20.274 2°50.774 12.433452 3.664592 31.721594  
2001-11-12 09:51:38 51°20.293 2°50.765 12.808772 3.664692 31.719199  
2001-11-12 09:51:42 51°20.307 2°50.759 12.808772 3.664692 31.719199  
2001-11-12 09:51:47 51°20.326 2°50.751 12.813671 3.665193 31.728053  
2001-11-12 09:51:53 51°20.348 2°50.742 12.563636 3.665293 31.727673  
2001-11-12 09:51:57 51°20.363 2°50.736 12.718144 3.665394 31.728637  
2001-11-12 09:52:03 51°20.386 2°50.729 12.755715 3.665795 31.738547  
2001-11-12 09:52:08 51°20.405 2°50.722 13.089362 3.665594 31.733255  
2001-11-12 09:52:13 51°20.424 2°50.715 13.089362 3.665594 31.733255  
2001-11-12 09:52:18 51°20.442 2°50.708 12.424547 3.665694 31.730859  
2001-11-12 09:52:23 51°20.461 2°50.701 12.535661 3.667698 31.747458  
2001-11-12 09:52:28 51°20.48 2°50.694 12.75495 3.666596 31.731472  
2001-11-12 09:52:33 51°20.499 2°50.686 12.49476 3.667999 31.742955  
2001-11-12 09:52:37 51°20.514 2°50.679 12.419981 3.669602 31.74897  
2001-11-12 09:52:43 51°20.536 2°50.669 12.419981 3.669602 31.74897  
2001-11-12 09:52:48 51°20.554 2°50.661 12.747977 3.669502 31.748006  
2001-11-12 09:52:53 51°20.573 2°50.652 12.856712 3.6685 31.736351  
2001-11-12 09:52:57 51°20.587 2°50.644 12.777482 3.670504 31.754285  
2001-11-12 09:53:03 51°20.609 2°50.633 12.368785 3.669301 31.742719  
2001-11-12 09:53:08 51°20.627 2°50.622 12.882263 3.669802 31.749554  
2001-11-12 09:53:13 51°20.645 2°50.611 12.882263 3.669802 31.749554  
2001-11-12 09:53:17 51°20.659 2°50.603 12.690369 3.672308 31.772982  
2001-11-12 09:53:23 51°20.681 2°50.589 12.651771 3.670704 31.75823  
2001-11-12 09:53:28 51°20.699 2°50.578 12.53679 3.669803 31.755604  
2001-11-12 09:53:32 51°20.713 2°50.57 12.416907 3.669301 31.750111  
2001-11-12 09:53:38 51°20.736 2°50.559 12.561516 3.669302 31.753473  
2001-11-12 09:53:43 51°20.754 2°50.55 12.561516 3.669302 31.753473  
2001-11-12 09:53:47 51°20.769 2°50.544 12.522753 3.6684 31.748156  
2001-11-12 09:53:53 51°20.793 2°50.536 12.887201 3.6686 31.752775  
2001-11-12 09:53:58 51°20.812 2°50.531 12.621174 3.666997 31.741379  
2001-11-12 09:54:03 51°20.831 2°50.524 12.540264 3.664993 31.72478  
2001-11-12 09:54:07 51°20.846 2°50.518 12.648212 3.664993 31.729485  
2001-11-12 09:54:13 51°20.869 2°50.508 12.648212 3.664993 31.729485  
2001-11-12 09:54:18 51°20.887 2°50.499 12.534668 3.66379 31.716566  
2001-11-12 09:54:23 51°20.906 2°50.49 12.462013 3.66359 31.720686  
2001-11-12 09:54:28 51°20.925 2°50.48 12.605351 3.662889 31.719311  
2001-11-12 09:54:33 51°20.943 2°50.471 13.083409 3.662187 31.714575  
2001-11-12 09:54:38 51°20.961 2°50.461 12.528575 3.662789 31.722381  
2001-11-12 09:54:43 51°20.98 2°50.452 12.528575 3.662789 31.722381  
2001-11-12 09:54:48 51°20.998 2°50.443 12.523791 3.661486 31.717233  
2001-11-12 09:54:52 51°21.014 2°50.436 12.633613 3.660785 31.716531  
2001-11-12 09:54:57 51°21.032 2°50.428 12.515665 3.660083 31.708429  
2001-11-12 09:55:03 51°21.055 2°50.418 12.508577 3.659482 31.708691  
2001-11-12 09:55:08 51°21.074 2°50.41 12.981948 3.658781 31.701261  
2001-11-12 09:55:13 51°21.093 2°50.402 12.981948 3.658781 31.701261  
2001-11-12 09:55:18 51°21.112 2°50.394 12.537647 3.65838 31.698072  
2001-11-12 09:55:23 51°21.131 2°50.386 12.521218 3.658881 31.705589  
2001-11-12 09:55:28 51°21.15 2°50.377 12.736595 3.658079 31.699211  
2001-11-12 09:55:33 51°21.168 2°50.368 12.984099 3.656977 31.693299  
2001-11-12 09:55:38 51°21.186 2°50.358 12.311979 3.657077 31.694937  
2001-11-12 09:55:43 51°21.204 2°50.347 12.311979 3.657077 31.694937  
2001-11-12 09:55:48 51°21.223 2°50.337 12.413968 3.655875 31.690075  
2001-11-12 09:55:53 51°21.241 2°50.326 12.633568 3.655073 31.687058  
2001-11-12 09:55:58 51°21.259 2°50.316 12.249188 3.654572 31.686265  
2001-11-12 09:56:03 51°21.277 2°50.306 12.578612 3.651867 31.666911  
2001-11-12 09:56:08 51°21.296 2°50.297 12.428977 3.650965 31.666287  
2001-11-12 09:56:12 51°21.311 2°50.29 12.428977 3.650965 31.666287  
2001-11-12 09:56:17 51°21.33 2°50.282 12.392443 3.650063 31.668355  
2001-11-12 09:56:23 51°21.353 2°50.273 12.543739 3.648661 31.658188  
2001-11-12 09:56:28 51°21.372 2°50.266 13.065591 3.647158 31.649744  
2001-11-12 09:56:33 51°21.391 2°50.26 12.477959 3.645254 31.641468  
2001-11-12 09:56:37 51°21.407 2°50.256 12.412114 3.644051 31.633902  
2001-11-12 09:56:43 51°21.43 2°50.25 12.412114 3.644051 31.633902  
2001-11-12 09:56:48 51°21.45 2°50.245 12.564133 3.64315 31.629908  
2001-11-12 09:56:53 51°21.47 2°50.241 12.571124 3.642047 31.619271  
2001-11-12 09:56:57 51°21.485 2°50.236 12.391177 3.641045 31.609601  
2001-11-12 09:57:03 51°21.509 2°50.228 12.470641 3.640845 31.611701  
2001-11-12 09:57:08 51°21.528 2°50.22 12.836228 3.639943 31.599637  
2001-11-12 09:57:13 51°21.546 2°50.212 12.836228 3.639943 31.599637  
2001-11-12 09:57:18 51°21.565 2°50.203 12.26573 3.639342 31.582415  
2001-11-12 09:57:23 51°21.583 2°50.193 12.42301 3.639743 31.586281  
2001-11-12 09:57:28 51°21.602 2°50.183 12.393755 3.637839 31.563219  
2001-11-12 09:57:33 51°21.62 2°50.174 12.547665 3.639241 31.574063  
2001-11-12 09:57:37 51°21.635 2°50.166 12.43065 3.639342 31.571674  
2001-11-12 09:57:43 51°21.658 2°50.157 12.43065 3.639342 31.571674  
2001-11-12 09:57:48 51°21.677 2°50.15 12.705721 3.640744 31.580503  
2001-11-12 09:57:53 51°21.697 2°50.143 12.85743 3.639041 31.558044  
2001-11-12 09:57:58 51°21.716 2°50.135 12.792634 3.640844 31.570065  
2001-11-12 09:58:03 51°21.734 2°50.125 12.623022 3.642448 31.577469  
2001-11-12 09:58:08 51°21.752 2°50.116 12.715264 3.642648 31.569344  
2001-11-12 09:58:13 51°21.77 2°50.104 12.715264 3.642648 31.569344  
2001-11-12 09:58:18 51°21.787 2°50.091 12.853074 3.64355 31.577362  
2001-11-12 09:58:23 51°21.804 2°50.078 12.685867 3.644251 31.579427  
2001-11-12 09:58:28 51°21.822 2°50.066 12.827916 3.646055 31.590097  
2001-11-12 09:58:33 51°21.839 2°50.054 12.930733 3.647157 31.59736  
2001-11-12 09:58:38 51°21.857 2°50.044 12.945177 3.64886 31.605049  
2001-11-12 09:58:43 51°21.875 2°50.034 12.945177 3.64886 31.605049  
2001-11-12 09:58:48 51°21.893 2°50.025 13.381791 3.650263 31.609842  
2001-11-12 09:58:53 51°21.911 2°50.018 12.882263 3.652367 31.613342  
2001-11-12 09:58:58 51°21.93 2°50.011 13.100147 3.656575 31.640432  
2001-11-12 09:59:03 51°21.949 2°50.003 13.257482 3.660984 31.664072  
2001-11-12 09:59:08 51°21.967 2°49.994 13.182392 3.667898 31.694342  
2001-11-12 09:59:13 51°21.985 2°49.984 13.182392 3.667898 31.694342  
2001-11-12 09:59:18 51°22.003 2°49.974 13.682664 3.676315 31.72761  
2001-11-12 09:59:23 51°22.02 2°49.964 13.517122 3.692247 31.812089  
2001-11-12 09:59:28 51°22.038 2°49.953 13.312015 3.70838 31.876817  
2001-11-12 09:59:33 51°22.056 2°49.942 13.428876 3.722509 31.952279  
2001-11-12 09:59:37 51°22.07 2°49.933 13.409948 3.738843 32.039873  
2001-11-12 09:59:43 51°22.091 2°49.92 13.409948 3.738843 32.039873  
2001-11-12 09:59:48 51°22.109 2°49.909 13.382949 3.75157 32.111613  
2001-11-12 09:59:52 51°22.123 2°49.901 13.610226 3.758985 32.133338  
2001-11-12 09:59:58 51°22.144 2°49.889 13.355717 3.766 32.169944  
2001-11-12 10:00:03 51°22.162 2°49.88 13.535086 3.77071 32.189287  
2001-11-12 10:00:08 51°22.181 2°49.871 13.685902 3.774117 32.207609  
2001-11-12 10:00:13 51°22.2 2°49.863 13.685902 3.774117 32.207609  
2001-11-12 10:00:18 51°22.218 2°49.857 13.548067 3.777023 32.217818  
2001-11-12 10:00:23 51°22.237 2°49.85 13.507426 3.779529 32.229564  
2001-11-12 10:00:28 51°22.256 2°49.844 13.411641 3.784339 32.260503  
2001-11-12 10:00:33 51°22.274 2°49.836 13.264624 3.785943 32.268358  
2001-11-12 10:00:37 51°22.289 2°49.829 13.482069 3.786744 32.273289  
2001-11-12 10:00:43 51°22.311 2°49.819 13.482069 3.786744 32.273289  
2001-11-12 10:00:48 51°22.33 2°49.811 13.484516 3.786043 32.261282  
2001-11-12 10:00:53 51°22.348 2°49.803 13.410171 3.787145 32.266388  
2001-11-12 10:00:58 51°22.367 2°49.796 13.48069 3.786043 32.25727  
2001-11-12 10:01:02 51°22.382 2°49.791 13.22667 3.788147 32.270544  
2001-11-12 10:01:08 51°22.405 2°49.784 13.446063 3.788047 32.265582  
2001-11-12 10:01:13 51°22.424 2°49.777 13.446063 3.788047 32.265582  
2001-11-12 10:01:17 51°22.439 2°49.773 13.700894 3.790552 32.287333  
2001-11-12 10:01:23 51°22.461 2°49.763 13.486696 3.790753 32.287896  
2001-11-12 10:01:28 51°22.479 2°49.754 13.414179 3.789751 32.276387  
2001-11-12 10:01:33 51°22.497 2°49.745 13.595835 3.791454 32.291203  
2001-11-12 10:01:38 51°22.516 2°49.736 13.464981 3.790753 32.285221  
2001-11-12 10:01:43 51°22.534 2°49.727 13.464981 3.790753 32.285221  
2001-11-12 10:01:48 51°22.553 2°49.719 13.455545 3.790051 32.277232  
2001-11-12 10:01:53 51°22.571 2°49.712 13.382727 3.790853 32.287509  
2001-11-12 10:01:58 51°22.59 2°49.706 13.642327 3.790452 32.279027  
2001-11-12 10:02:03 51°22.609 2°49.699 13.534019 3.789149 32.263335  
2001-11-12 10:02:08 51°22.628 2°49.692 13.714819 3.790552 32.277303  
2001-11-12 10:02:12 51°22.643 2°49.686 13.714819 3.790552 32.277303  
2001-11-12 10:02:18 51°22.666 2°49.677 13.460663 3.791955 32.290604  
2001-11-12 10:02:23 51°22.685 2°49.671 13.421573 3.790653 32.276248  
2001-11-12 10:02:28 51°22.704 2°49.663 13.237433 3.790452 32.274348  
2001-11-12 10:02:33 51°22.723 2°49.656 13.381568 3.792156 32.285818  
2001-11-12 10:02:38 51°22.741 2°49.648 13.709542 3.791855 32.280295  
2001-11-12 10:02:43 51°22.761 2°49.642 13.709542 3.791855 32.280295  
2001-11-12 10:02:48 51°22.779 2°49.633 13.234173 3.792356 32.283039  
2001-11-12 10:02:53 51°22.798 2°49.627 13.269802 3.792456 32.284657  
2001-11-12 10:02:58 51°22.817 2°49.618 13.52735 3.79396 32.29623  
2001-11-12 10:03:03 51°22.836 2°49.613 13.380097 3.792557 32.28828  
2001-11-12 10:03:08 51°22.855 2°49.603 13.673702 3.791554 32.278782  
2001-11-12 10:03:13 51°22.874 2°49.598 13.673702 3.791554 32.278782  
2001-11-12 10:03:18 51°22.893 2°49.59 13.416228 3.791354 32.276882  
2001-11-12 10:03:23 51°22.912 2°49.584 13.378003 3.791053 32.273365  
2001-11-12 10:03:28 51°22.931 2°49.577 13.304208 3.791554 32.278782  
2001-11-12 10:03:33 51°22.951 2°49.572 13.341584 3.792657 32.289899  
2001-11-12 10:03:38 51°22.969 2°49.564 13.196469 3.791454 32.277832  
2001-11-12 10:03:43 51°22.989 2°49.558 13.196469 3.791454 32.277832  
2001-11-12 10:03:48 51°23.008 2°49.551 13.558068 3.791053 32.27136  
2001-11-12 10:03:53 51°23.027 2°49.545 13.378226 3.791454 32.2785  
2001-11-12 10:03:58 51°23.046 2°49.538 13.309339 3.793258 32.296936  
2001-11-12 10:04:02 51°23.062 2°49.533 13.382727 3.791955 32.284586  
2001-11-12 10:04:08 51°23.085 2°49.526 13.566823 3.791555 32.283461  
2001-11-12 10:04:13 51°23.104 2°49.518 13.566823 3.791555 32.283461  
2001-11-12 10:04:18 51°23.123 2°49.512 13.751833 3.793058 32.294367  
2001-11-12 10:04:23 51°23.142 2°49.505 13.429544 3.793058 32.294367  
2001-11-12 10:04:28 51°23.161 2°49.498 13.102519 3.791955 32.282581  
2001-11-12 10:04:33 51°23.18 2°49.491 13.179308 3.790352 32.267384  
2001-11-12 10:04:38 51°23.199 2°49.484 13.510184 3.792757 32.29018  
2001-11-12 10:04:43 51°23.219 2°49.477 13.510184 3.792757 32.29018  
2001-11-12 10:04:48 51°23.238 2°49.47 13.769292 3.791154 32.278324  
2001-11-12 10:04:53 51°23.257 2°49.462 13.625501 3.793759 32.296336  
2001-11-12 10:04:58 51°23.276 2°49.457 13.225151 3.793659 32.29338  
2001-11-12 10:05:03 51°23.295 2°49.449 13.554735 3.794361 32.295349  
2001-11-12 10:05:08 51°23.314 2°49.443 13.444772 3.796766 32.316135  
2001-11-12 10:05:13 51°23.333 2°49.435 13.444772 3.796766 32.316135  
2001-11-12 10:05:18 51°23.352 2°49.429 13.592415 3.796866 32.316416  
2001-11-12 10:05:22 51°23.367 2°49.422 13.66607 3.796164 32.30442  
2001-11-12 10:05:28 51°23.39 2°49.415 13.520279 3.797467 32.316095  
2001-11-12 10:05:33 51°23.409 2°49.407 13.481446 3.799672 32.335647  
2001-11-12 10:05:37 51°23.424 2°49.402 13.189185 3.79857 32.32119  
2001-11-12 10:05:43 51°23.447 2°49.394 13.189185 3.79857 32.32119  
2001-11-12 10:05:48 51°23.466 2°49.388 13.222784 3.800274 32.341345  
2001-11-12 10:05:52 51°23.481 2°49.382 13.44259 3.799973 32.333145  
2001-11-12 10:05:58 51°23.504 2°49.373 13.367841 3.800474 32.338561  
2001-11-12 10:06:03 51°23.523 2°49.366 13.260696 3.799472 32.326391  
2001-11-12 10:06:08 51°23.542 2°49.36 13.439206 3.799873 32.332864  
2001-11-12 10:06:13 51°23.561 2°49.351 13.439206 3.799873 32.332864  
2001-11-12 10:06:18 51°23.58 2°49.345 13.256946 3.802779 32.35906  
2001-11-12 10:06:22 51°23.595 2°49.34 13.183956 3.800273 32.336662  
2001-11-12 10:06:27 51°23.614 2°49.331 13.547356 3.800273 32.338  
2001-11-12 10:06:33 51°23.637 2°49.323 13.692334 3.800173 32.335043  
2001-11-12 10:06:37 51°23.651 2°49.316 13.615777 3.798971 32.326325  
2001-11-12 10:06:43 51°23.674 2°49.309 13.615777 3.798971 32.326325  
2001-11-12 10:06:48 51°23.693 2°49.3 13.288012 3.799873 32.338216  
2001-11-12 10:06:52 51°23.708 2°49.296 13.542777 3.799271 32.33118  
2001-11-12 10:06:58 51°23.73 2°49.286 13.287967 3.797668 32.318663  
2001-11-12 10:07:02 51°23.746 2°49.282 13.2494 3.800073 32.338777  
2001-11-12 10:07:08 51°23.768 2°49.272 13.394668 3.799372 32.334806  
2001-11-12 10:07:13 51°23.788 2°49.268 13.394668 3.799372 32.334806  
2001-11-12 10:07:18 51°23.806 2°49.26 13.394846 3.79857 32.32654  
2001-11-12 10:07:23 51°23.826 2°49.255 13.139426 3.798369 32.325979  
2001-11-12 10:07:28 51°23.844 2°49.247 13.363072 3.799572 32.339382  
2001-11-12 10:07:32 51°23.86 2°49.244 13.293277 3.79867 32.330835  
2001-11-12 10:07:38 51°23.883 2°49.235 13.410349 3.79847 32.328266  
2001-11-12 10:07:43 51°23.902 2°49.229 13.410349 3.79847 32.328266  
2001-11-12 10:07:48 51°23.921 2°49.222 13.524726 3.799772 32.340612  
2001-11-12 10:07:53 51°23.94 2°49.217 13.310766 3.799271 32.337202  
2001-11-12 10:07:57 51°23.955 2°49.21 13.572733 3.79877 32.332453  
2001-11-12 10:08:03 51°23.979 2°49.203 13.431147 3.800173 32.344411  
2001-11-12 10:08:08 51°23.997 2°49.195 13.070203 3.800875 32.344366  
2001-11-12 10:08:13 51°24.017 2°49.19 13.070203 3.800875 32.344366  
2001-11-12 10:08:18 51°24.036 2°49.182 13.475394 3.801877 32.355869  
2001-11-12 10:08:22 51°24.051 2°49.178 13.69606 3.802178 32.352025  
2001-11-12 10:08:28 51°24.074 2°49.169 13.517077 3.805084 32.377551  
2001-11-12 10:08:33 51°24.093 2°49.163 13.043783 3.805385 32.377052  
2001-11-12 10:08:38 51°24.112 2°49.156 13.262526 3.805284 32.372755  
2001-11-12 10:08:43 51°24.131 2°49.15 13.262526 3.805284 32.372755  
2001-11-12 10:08:48 51°24.15 2°49.143 13.15311 3.802879 32.346628  
2001-11-12 10:08:52 51°24.166 2°49.138 13.371006 3.808191 32.38957  
2001-11-12 10:08:58 51°24.189 2°49.13 13.628565 3.809694 32.399789  
2001-11-12 10:09:03 51°24.208 2°49.123 13.448867 3.808993 32.394485  
2001-11-12 10:09:08 51°24.227 2°49.117 13.449223 3.809694 32.395772  
2001-11-12 10:09:12 51°24.242 2°49.111 13.449223 3.809694 32.395772  
2001-11-12 10:09:18 51°24.265 2°49.104 13.55989 3.8123 32.419776  
2001-11-12 10:09:23 51°24.284 2°49.097 14.107681 3.810897 32.40515  
2001-11-12 10:09:28 51°24.303 2°49.091 13.530507 3.811298 32.408277  
2001-11-12 10:09:33 51°24.322 2°49.084 13.279086 3.811598 32.409784  
2001-11-12 10:09:38 51°24.341 2°49.078 13.757151 3.811799 32.412351  
2001-11-12 10:09:43 51°24.36 2°49.071 13.757151 3.811799 32.412351  
2001-11-12 10:09:48 51°24.379 2°49.065 13.577887 3.8125 32.414975  
2001-11-12 10:09:53 51°24.398 2°49.058 13.285691 3.811498 32.406826  
2001-11-12 10:09:58 51°24.417 2°49.051 13.614356 3.8126 32.415924  
2001-11-12 10:10:03 51°24.436 2°49.045 13.798792 3.814705 32.436521  
2001-11-12 10:10:08 51°24.455 2°49.038 13.473214 3.813903 32.422231  
2001-11-12 10:10:13 51°24.474 2°49.032 13.473214 3.813903 32.422231  
2001-11-12 10:10:18 51°24.494 2°49.025 13.290377 3.813903 32.418213  
2001-11-12 10:10:23 51°24.513 2°49.019 13.471701 3.815807 32.436237  
2001-11-12 10:10:28 51°24.532 2°49.013 13.669398 3.815908 32.432497